• Join FlightAware (Why Join?)
  • Login
  • US Flag 
08:13AM EST


 

Airport Tracker/Info


-or-


 

Live Flight TrackerFlight Track Log ✈ KAP550 ✈ 11-Jul-2013 ✈ KALB - KMSS

Flight Track Log - Related Links

Times and Time Zones

All times are in EDT time to prevent confusion due to time zone crossing. See the KAP550 flight status page for this flight to view local times or setup timezone preferences in your user account.

Time Position Orientation Groundspeed Altitude Reporting Facility
EDT Latitude Longitude Course Direction KTS MPH feet Rate Location/Type
10:45AM 42.7672 -73.8061 352° North 103 119 1,100  Level Boston Center
10:46AM 42.7986 -73.8125 352° North 117 135 2,100 840 Climbing Boston Center
10:47AM 42.8339 -73.8217 349° North 134 154 2,800 720 Climbing Boston Center
10:48AM 42.8756 -73.8283 353° North 145 167 3,600 780 Climbing Boston Center
10:49AM 42.9128 -73.8378 349° North 142 163 4,400 780 Climbing Boston Center
10:50AM 42.9481 -73.8497 346° North 135 155 5,200 780 Climbing Boston Center
10:51AM 42.9875 -73.8592 350° North 131 151 6,000 720 Climbing Boston Center
10:52AM 43.0272 -73.8686 350° North 140 161 6,700 540 Climbing Boston Center
10:53AM 43.0686 -73.8781 351° North 156 180 7,200 240 Climbing Boston Center
10:54AM 43.1164 -73.8936 347° North 182 209 7,200 -60 Level Boston Center
10:55AM 43.1683 -73.9033 352° North 196 226 7,100 -60 Descending Boston Center
10:56AM 43.2161 -73.9131 352° North 202 232 7,100  Level Boston Center
10:57AM 43.2786 -73.9258 352° North 219 252 7,100  Level Boston Center
10:58AM 43.3264 -73.9386 349° North 198 228 7,100  Level Boston Center
10:59AM 43.3867 -73.9514 351° North 198 228 7,100  Level Boston Center
11:00AM 43.4428 -73.9669 349° North 203 234 7,100  Level Boston Center
11:01AM 43.4986 -73.9800 350° North 198 228 7,100  Level Boston Center
11:02AM 43.5506 -73.9928 350° North 198 228 7,100  Level Boston Center
11:03AM 43.6003 -74.0197 339° North 198 228 7,100  Level Boston Center
11:04AM 43.6500 -74.0469 338° Northwest 198 228 7,100  Level Boston Center
11:05AM 43.6933 -74.0767 334° Northwest 192 221 7,100  Level Boston Center
11:06AM 43.7408 -74.1039 338° Northwest 192 221 7,100 240 Level Boston Center
11:07AM 43.7864 -74.1311 337° Northwest 187 215 7,600 360 Climbing Boston Center
11:08AM 43.8297 -74.1553 338° Northwest 174 200 7,900 240 Climbing Boston Center
11:09AM 43.8731 -74.1853 333° Northwest 169 194 8,100 60 Climbing Boston Center
11:10AM 43.9206 -74.2128 337° Northwest 174 200 8,100 -60 Level Boston Center
11:11AM 43.9681 -74.2400 338° Northwest 174 200 8,000 -60 Descending Boston Center
11:12AM 44.0156 -74.2703 335° Northwest 174 200 8,000  Level Boston Center
11:13AM 44.0650 -74.2981 338° Northwest 179 206 8,100 300 Climbing Boston Center
11:14AM 44.1083 -74.3253 336° Northwest 179 206 8,600 420 Climbing Boston Center
11:15AM 44.1475 -74.3497 336° Northwest 166 191 9,000 300 Climbing Boston Center
11:16AM 44.1950 -74.3772 337° Northwest 166 191 9,300 240 Climbing Boston Center
11:17AM 44.2406 -74.4019 339° North 171 197 9,500 60 Climbing Boston Center
11:18AM 44.2878 -74.4353 333° Northwest 171 197 9,500  Level Boston Center
11:19AM 44.3331 -74.4631 336° Northwest 171 197 9,500  Level Boston Center
11:20AM 44.3806 -74.4908 337° Northwest 171 197 9,500 120 Level Boston Center
11:21AM 44.4300 -74.5217 336° Northwest 177 204 9,800 -240 Climbing Boston Center
11:22AM 44.4775 -74.5522 335° Northwest 177 204 9,100 -840 Descending Boston Center
11:23AM 44.5292 -74.5744 343° North 182 209 8,200 -900 Descending Boston Center
11:24AM 44.5769 -74.5850 351° North 183 211 7,300 -900 Descending Boston Center
11:25AM 44.6219 -74.6247 328° Northwest 183 211 6,500 -900 Descending Boston Center
11:26AM 44.6606 -74.6669 322° Northwest 183 211 5,600 -600 Descending Boston Center
11:27AM 44.7056 -74.7125 324° Northwest 183 211 5,400 -240 Descending Boston Center